createdAt,value
2023-04-13T00:00:01.944Z,119.72
2023-04-13T00:15:01.928Z,117.29
2023-04-13T00:30:02.213Z,114.94
2023-04-13T00:45:02.144Z,112.76
2023-04-13T01:00:01.315Z,114.17
2023-04-13T01:15:02.188Z,113.32
2023-04-13T01:30:01.546Z,115.59
2023-04-13T01:45:02.161Z,120.4
2023-04-13T02:00:03.120Z,121.26
2023-04-13T02:15:02.232Z,120.77
2023-04-13T02:30:01.525Z,121.13
2023-04-13T02:45:02.147Z,120.93
2023-04-13T03:00:03.115Z,118.99
2023-04-13T03:15:02.414Z,118.42
2023-04-13T03:30:02.041Z,119.15
2023-04-13T03:45:02.187Z,119.7
2023-04-13T04:00:01.779Z,118.58
2023-04-13T04:15:02.180Z,120.12
2023-04-13T04:30:03.128Z,119.96
2023-04-13T04:45:02.132Z,120.77
2023-04-13T05:00:01.905Z,120.85
2023-04-13T05:15:02.204Z,120.32
2023-04-13T05:30:01.416Z,120.65
2023-04-13T05:45:02.234Z,120
2023-04-13T06:00:02.164Z,118.5
2023-04-13T06:15:02.005Z,117.33
2023-04-13T06:30:01.697Z,115.35
2023-04-13T06:45:01.986Z,112.3
2023-04-13T07:00:01.346Z,112.15
2023-04-13T07:15:02.048Z,111.66
2023-04-13T07:30:03.138Z,108.22
2023-04-13T07:45:02.158Z,107.62
2023-04-13T08:00:01.966Z,107.66
2023-04-13T08:15:02.218Z,105.31
2023-04-13T08:30:03.222Z,101.14
2023-04-13T08:45:02.294Z,89.2
2023-04-13T09:00:01.982Z,85.11
2023-04-13T09:15:02.293Z,88.64
2023-04-13T09:30:02.257Z,90.7
2023-04-13T09:45:01.537Z,85.72
2023-04-13T10:00:02.144Z,86.29
2023-04-13T10:15:01.518Z,87.34
2023-04-13T10:30:01.934Z,86.53
2023-04-13T10:45:02.830Z,83.58
2023-04-13T11:00:01.989Z,83.21
2023-04-13T11:15:01.768Z,80.38
2023-04-13T11:30:02.171Z,76.94
2023-04-13T11:45:01.444Z,78.88
2023-04-13T12:00:02.416Z,76.9
2023-04-13T12:30:02.446Z,83.82
2023-04-13T12:45:01.491Z,83.9
2023-04-13T13:00:02.513Z,83.9
2023-04-13T13:15:01.990Z,82.44
2023-04-13T13:30:01.413Z,80.82
2023-04-13T13:45:01.799Z,82.44
2023-04-13T14:00:02.979Z,81.84
2023-04-13T14:15:01.646Z,83.98
2023-04-13T14:30:02.617Z,87.38
2023-04-13T14:45:01.686Z,90.7
2023-04-13T15:00:02.663Z,92.28
2023-04-13T15:15:01.823Z,92.4
2023-04-13T15:30:02.650Z,94.54
2023-04-13T15:45:01.562Z,96.57
2023-04-13T16:00:02.622Z,95.11
2023-04-13T16:15:01.476Z,96.89
2023-04-13T16:30:02.503Z,97.1
2023-04-13T16:45:04.069Z,97.7
2023-04-13T17:00:01.453Z,98.87
2023-04-13T17:15:01.565Z,99.12
2023-04-13T17:30:02.642Z,103
2023-04-13T17:45:02.052Z,101.79
2023-04-13T18:00:01.384Z,105.19
2023-04-13T18:15:01.852Z,106.81
2023-04-13T18:30:02.856Z,111.22
2023-04-13T18:45:01.973Z,113
2023-04-13T19:00:01.723Z,113.81
2023-04-13T19:15:01.967Z,112.3
2023-04-13T19:30:03.026Z,114.38
2023-04-13T19:45:02.084Z,114.62
2023-04-13T20:00:01.897Z,116.68
2023-04-13T20:15:02.145Z,116.64
2023-04-13T20:30:01.653Z,118.1
2023-04-13T20:45:02.239Z,118.18
2023-04-13T21:00:01.348Z,118.1
2023-04-13T21:15:02.580Z,119.88
2023-04-13T21:30:01.710Z,120.45
2023-04-13T21:45:02.186Z,120.69
2023-04-13T22:00:01.505Z,120.2
2023-04-13T22:15:02.113Z,120.4
2023-04-13T22:30:01.363Z,119.7
2023-04-13T22:45:02.159Z,119.15
2023-04-13T23:00:02.057Z,118.91
2023-04-13T23:15:02.084Z,119.64
2023-04-13T23:30:01.714Z,120.49
2023-04-13T23:45:02.140Z,120.93
